createdAt,value
2019-03-31T00:00:45.367Z,6.90
2019-03-31T00:03:16.665Z,6.90
2019-03-31T00:05:46.419Z,6.80
2019-03-31T00:08:16.156Z,6.80
2019-03-31T00:10:45.874Z,6.70
2019-03-31T00:13:15.645Z,6.70
2019-03-31T00:15:45.393Z,6.60
2019-03-31T00:18:15.152Z,6.60
2019-03-31T00:20:44.821Z,6.60
2019-03-31T00:23:14.546Z,6.60
2019-03-31T00:25:45.882Z,6.50
2019-03-31T00:28:15.549Z,6.40
2019-03-31T00:30:45.283Z,6.40
2019-03-31T00:33:15.185Z,6.40
2019-03-31T00:35:44.838Z,6.30
2019-03-31T00:38:14.507Z,6.30
2019-03-31T00:40:44.190Z,6.20
2019-03-31T00:43:13.904Z,6.20
2019-03-31T00:45:43.627Z,6.20
2019-03-31T00:48:13.296Z,6.10
2019-03-31T00:50:43.032Z,6.10
2019-03-31T00:53:12.768Z,6.10
2019-03-31T00:55:42.514Z,6.00
2019-03-31T00:58:12.166Z,6.00
2019-03-31T01:00:48.869Z,6.00
2019-03-31T01:03:22.303Z,6.00
2019-03-31T01:05:52.121Z,5.90
2019-03-31T01:08:22.046Z,5.90
2019-03-31T01:10:51.769Z,5.80
2019-03-31T01:13:21.704Z,5.80
2019-03-31T01:15:53.309Z,5.80
2019-03-31T01:18:23.253Z,5.80
2019-03-31T01:20:53.000Z,5.80
2019-03-31T01:23:22.748Z,5.70
2019-03-31T01:25:52.510Z,5.70
2019-03-31T01:28:22.338Z,5.60
2019-03-31T01:30:52.238Z,5.50
2019-03-31T01:33:22.283Z,5.50
2019-03-31T01:35:51.994Z,5.50
2019-03-31T01:38:21.658Z,5.50
2019-03-31T01:40:51.379Z,5.40
2019-03-31T01:43:21.183Z,5.40
2019-03-31T01:45:50.929Z,5.40
2019-03-31T01:48:20.607Z,5.30
2019-03-31T01:50:50.281Z,5.30
2019-03-31T01:53:20.004Z,5.30
2019-03-31T01:55:49.756Z,5.30
2019-03-31T01:58:19.471Z,5.30
2019-03-31T02:00:50.792Z,5.20
2019-03-31T02:03:20.548Z,5.20
2019-03-31T02:05:50.287Z,5.20
2019-03-31T02:08:20.065Z,5.20
2019-03-31T02:10:51.576Z,5.10
2019-03-31T02:13:21.312Z,5.10
2019-03-31T02:15:50.963Z,5.10
2019-03-31T02:18:20.626Z,5.10
2019-03-31T02:20:50.354Z,5.00
2019-03-31T02:23:20.105Z,5.00
2019-03-31T02:25:49.865Z,4.90
2019-03-31T02:28:19.565Z,4.90
2019-03-31T02:30:49.302Z,4.90
2019-03-31T02:33:19.049Z,4.90
2019-03-31T02:35:48.710Z,4.80
2019-03-31T02:38:18.501Z,4.80
2019-03-31T02:40:48.259Z,4.80
2019-03-31T02:43:17.951Z,4.70
2019-03-31T02:45:48.746Z,4.70
2019-03-31T02:48:18.425Z,4.70
2019-03-31T02:50:50.365Z,4.60
2019-03-31T02:53:20.946Z,4.60
2019-03-31T02:55:51.121Z,4.60
2019-03-31T02:58:21.360Z,4.60
2019-03-31T03:00:51.104Z,4.60
2019-03-31T03:03:21.025Z,4.50
2019-03-31T03:05:50.723Z,4.50
2019-03-31T03:08:21.449Z,4.50
2019-03-31T03:10:52.659Z,4.50
2019-03-31T03:13:24.686Z,4.50
2019-03-31T03:16:09.073Z,4.50
2019-03-31T03:18:38.734Z,4.50
2019-03-31T03:21:08.393Z,4.50
2019-03-31T03:23:38.081Z,4.50
2019-03-31T03:26:07.765Z,4.50
2019-03-31T03:28:37.427Z,4.40
2019-03-31T03:31:14.638Z,4.50
2019-03-31T03:33:40.038Z,4.50
2019-03-31T03:36:09.767Z,4.50
2019-03-31T03:38:39.414Z,4.50
2019-03-31T03:41:09.098Z,4.50
2019-03-31T03:43:54.111Z,4.50
2019-03-31T03:46:10.874Z,4.50
2019-03-31T03:48:40.582Z,4.50
2019-03-31T03:51:10.316Z,4.50
2019-03-31T03:53:40.055Z,4.50
2019-03-31T03:56:09.747Z,4.50
2019-03-31T03:58:39.420Z,4.50
2019-03-31T04:01:13.154Z,4.50
2019-03-31T04:03:42.853Z,4.50
2019-03-31T04:06:12.578Z,4.50
2019-03-31T04:08:42.176Z,4.50
2019-03-31T04:11:14.856Z,4.50
2019-03-31T04:13:44.575Z,4.50
2019-03-31T04:16:14.245Z,4.50
2019-03-31T04:18:44.013Z,4.50
2019-03-31T04:21:14.746Z,4.40
2019-03-31T04:23:44.566Z,4.40
2019-03-31T04:26:14.259Z,4.40
2019-03-31T04:28:44.008Z,4.40
2019-03-31T04:31:13.653Z,4.40
2019-03-31T04:33:51.733Z,4.40
2019-03-31T04:36:14.831Z,4.30
2019-03-31T04:38:44.486Z,4.30
2019-03-31T04:41:14.255Z,4.30
2019-03-31T04:43:43.915Z,4.20
2019-03-31T04:46:13.646Z,4.20
2019-03-31T04:48:43.363Z,4.20
2019-03-31T04:51:13.081Z,4.20
2019-03-31T04:53:42.819Z,4.20
2019-03-31T04:56:12.494Z,4.10
2019-03-31T04:58:42.440Z,4.10
2019-03-31T05:01:12.198Z,4.10
2019-03-31T05:03:41.880Z,4.10
2019-03-31T05:06:11.591Z,4.10
2019-03-31T05:08:41.235Z,4.10
2019-03-31T05:11:10.961Z,4.10
2019-03-31T05:13:40.723Z,4.10
2019-03-31T05:16:10.520Z,4.00
2019-03-31T05:18:40.195Z,4.10
2019-03-31T05:21:09.952Z,4.10
2019-03-31T05:23:39.614Z,4.00
2019-03-31T05:26:09.361Z,4.00
2019-03-31T05:28:39.119Z,4.00
2019-03-31T05:31:08.848Z,4.10
2019-03-31T05:33:38.633Z,4.10
2019-03-31T05:36:08.380Z,4.10
2019-03-31T05:38:38.067Z,4.10
2019-03-31T05:41:07.732Z,4.10
2019-03-31T05:43:37.448Z,4.10
2019-03-31T05:46:07.180Z,4.20
2019-03-31T05:48:36.917Z,4.20
2019-03-31T05:51:07.675Z,4.20
2019-03-31T05:53:37.345Z,4.20
2019-03-31T05:56:07.075Z,4.20
2019-03-31T05:58:36.807Z,4.30
2019-03-31T06:01:06.541Z,4.30
2019-03-31T06:03:37.504Z,4.30
2019-03-31T06:06:07.171Z,4.30
2019-03-31T06:08:36.829Z,4.30
2019-03-31T06:11:07.954Z,4.30
2019-03-31T06:13:37.711Z,4.30
2019-03-31T06:16:07.427Z,4.40
2019-03-31T06:18:37.165Z,4.30
2019-03-31T06:21:06.894Z,4.40
2019-03-31T06:23:36.560Z,4.40
2019-03-31T06:26:06.320Z,4.40
2019-03-31T06:28:35.950Z,4.50
2019-03-31T06:31:05.710Z,4.50
2019-03-31T06:33:35.429Z,4.50
2019-03-31T06:36:05.158Z,4.50
2019-03-31T06:38:34.894Z,4.60
2019-03-31T06:41:04.596Z,4.60
2019-03-31T06:43:34.268Z,4.60
2019-03-31T06:46:04.929Z,4.60
2019-03-31T06:48:34.588Z,4.60
2019-03-31T06:51:04.359Z,4.70
2019-03-31T06:53:34.104Z,4.70
2019-03-31T06:56:03.806Z,4.70
2019-03-31T06:58:33.532Z,4.80
2019-03-31T07:01:03.189Z,4.80
2019-03-31T07:03:32.915Z,4.90
2019-03-31T07:06:02.641Z,4.90
2019-03-31T07:08:32.339Z,5.00
2019-03-31T07:11:02.092Z,5.00
2019-03-31T07:13:31.751Z,5.00
2019-03-31T07:16:01.504Z,5.10
2019-03-31T07:18:31.232Z,5.10
2019-03-31T07:21:00.921Z,5.10
2019-03-31T07:23:30.646Z,5.20
2019-03-31T07:26:00.381Z,5.10
2019-03-31T07:28:30.138Z,5.10
2019-03-31T07:30:59.885Z,5.10
2019-03-31T07:33:29.678Z,5.10
2019-03-31T07:35:59.423Z,5.10
2019-03-31T07:38:38.691Z,5.10
2019-03-31T07:41:11.993Z,5.10
2019-03-31T07:43:32.267Z,5.20
2019-03-31T07:46:01.947Z,5.20
2019-03-31T07:48:31.672Z,5.10
2019-03-31T07:51:01.491Z,5.10
2019-03-31T07:53:31.195Z,5.10
2019-03-31T07:56:00.933Z,5.10
2019-03-31T07:58:30.699Z,5.10
2019-03-31T08:01:00.419Z,5.00
2019-03-31T08:03:30.154Z,5.00
2019-03-31T08:06:00.838Z,4.90
2019-03-31T08:08:30.510Z,4.80
2019-03-31T08:11:00.244Z,4.60
2019-03-31T08:13:29.908Z,4.50
2019-03-31T08:15:59.638Z,4.30
2019-03-31T08:18:29.384Z,4.20
2019-03-31T08:20:59.114Z,4.00
2019-03-31T08:23:28.796Z,3.90
2019-03-31T08:25:58.463Z,3.70
2019-03-31T08:28:28.168Z,3.60
2019-03-31T08:30:57.842Z,3.40
2019-03-31T08:33:27.550Z,3.40
2019-03-31T08:35:57.282Z,3.30
2019-03-31T08:38:27.022Z,3.30
2019-03-31T08:40:56.755Z,3.30
2019-03-31T08:43:26.539Z,3.20
2019-03-31T08:45:56.326Z,3.30
2019-03-31T08:48:26.022Z,3.30
2019-03-31T08:50:55.739Z,3.20
2019-03-31T08:53:25.500Z,3.10
2019-03-31T08:55:55.160Z,3.10
2019-03-31T08:58:24.872Z,3.00
2019-03-31T09:00:57.515Z,3.00
2019-03-31T09:03:27.249Z,3.00
2019-03-31T09:06:01.983Z,3.00
2019-03-31T09:08:29.478Z,3.10
2019-03-31T09:10:59.222Z,3.20
2019-03-31T09:13:28.878Z,3.20
2019-03-31T09:15:58.558Z,3.20
2019-03-31T09:18:28.302Z,3.30
2019-03-31T09:20:58.071Z,3.30
2019-03-31T09:23:27.823Z,3.50
2019-03-31T09:25:57.487Z,3.70
2019-03-31T09:28:27.155Z,3.90
2019-03-31T09:30:56.864Z,4.00
2019-03-31T09:33:26.521Z,4.00
2019-03-31T09:35:56.280Z,4.10
2019-03-31T09:38:25.931Z,4.10
2019-03-31T09:40:55.598Z,4.20
2019-03-31T09:43:25.319Z,4.20
2019-03-31T09:45:56.138Z,4.30
2019-03-31T09:48:25.809Z,4.40
2019-03-31T09:50:56.694Z,4.60
2019-03-31T09:53:26.423Z,4.70
2019-03-31T09:55:56.168Z,4.80
2019-03-31T09:58:26.013Z,4.90
2019-03-31T10:00:56.521Z,5.00
2019-03-31T10:03:26.255Z,5.00
2019-03-31T10:06:09.406Z,4.90
2019-03-31T10:08:27.323Z,4.90
2019-03-31T10:10:57.061Z,4.80
2019-03-31T10:13:26.836Z,4.90
2019-03-31T10:15:57.624Z,4.90
2019-03-31T10:18:27.318Z,4.80
2019-03-31T10:20:56.989Z,4.80
2019-03-31T10:23:26.728Z,4.90
2019-03-31T10:25:56.400Z,5.00
2019-03-31T10:28:27.128Z,5.10
2019-03-31T10:30:56.868Z,5.00
2019-03-31T10:33:26.551Z,4.80
2019-03-31T10:35:56.250Z,4.80
2019-03-31T10:38:26.012Z,4.80
2019-03-31T10:40:56.227Z,4.80
2019-03-31T10:43:25.906Z,4.80
2019-03-31T10:45:55.580Z,4.90
2019-03-31T10:48:25.592Z,5.00
2019-03-31T10:50:57.956Z,5.10
2019-03-31T10:53:27.733Z,5.30
2019-03-31T10:55:57.517Z,5.50
2019-03-31T10:58:27.198Z,5.70
2019-03-31T11:00:56.943Z,5.80
2019-03-31T11:03:26.706Z,5.90
2019-03-31T11:05:56.615Z,6.00
2019-03-31T11:08:27.746Z,6.10
2019-03-31T11:10:57.426Z,6.10
2019-03-31T11:13:27.119Z,6.30
2019-03-31T11:15:57.555Z,6.40
2019-03-31T11:18:27.421Z,6.50
2019-03-31T11:20:58.696Z,6.70
2019-03-31T11:23:29.822Z,6.80
2019-03-31T11:25:59.600Z,7.00
2019-03-31T11:28:29.384Z,7.10
2019-03-31T11:30:59.015Z,7.30
2019-03-31T11:33:28.684Z,7.50
2019-03-31T11:35:58.461Z,7.60
2019-03-31T11:38:28.209Z,7.70
2019-03-31T11:40:57.963Z,7.80
2019-03-31T11:43:28.752Z,7.80
2019-03-31T11:45:58.524Z,7.90
2019-03-31T11:48:28.298Z,8.10
2019-03-31T11:51:00.330Z,8.30
2019-03-31T11:53:29.323Z,8.50
2019-03-31T11:55:59.098Z,8.60
2019-03-31T11:58:32.062Z,8.70
2019-03-31T12:01:00.179Z,8.80
2019-03-31T12:03:31.159Z,8.90
2019-03-31T12:06:02.113Z,9.00
2019-03-31T12:08:31.838Z,9.00
2019-03-31T12:11:01.573Z,9.00
2019-03-31T12:13:31.228Z,9.00
2019-03-31T12:16:00.973Z,9.00
2019-03-31T12:18:30.614Z,9.00
2019-03-31T12:21:00.276Z,9.00
2019-03-31T12:23:30.070Z,9.00
2019-03-31T12:25:59.718Z,9.10
2019-03-31T12:28:29.501Z,9.10
2019-03-31T12:30:59.173Z,9.20
2019-03-31T12:33:28.936Z,9.30
2019-03-31T12:35:59.693Z,9.30
2019-03-31T12:38:30.680Z,9.40
2019-03-31T12:41:00.331Z,9.60
2019-03-31T12:43:30.011Z,9.80
2019-03-31T12:45:59.705Z,10.10
2019-03-31T12:48:31.657Z,10.30
2019-03-31T12:51:00.736Z,10.30
2019-03-31T12:53:30.462Z,10.40
2019-03-31T12:56:00.746Z,9.90
2019-03-31T12:58:30.588Z,9.80
2019-03-31T13:01:00.387Z,9.70
2019-03-31T13:03:30.131Z,9.80
2019-03-31T13:05:59.846Z,9.90
2019-03-31T13:08:29.505Z,9.80
2019-03-31T13:10:59.264Z,9.90
2019-03-31T13:13:30.239Z,9.80
2019-03-31T13:15:59.988Z,10.10
2019-03-31T13:18:29.745Z,10.10
2019-03-31T13:20:59.432Z,10.00
2019-03-31T13:23:29.091Z,10.20
2019-03-31T13:25:58.854Z,10.10
2019-03-31T13:28:28.603Z,10.00
2019-03-31T13:30:58.396Z,9.90
2019-03-31T13:33:28.076Z,9.90
2019-03-31T13:35:57.849Z,9.90
2019-03-31T13:38:27.573Z,9.80
2019-03-31T13:40:58.685Z,9.80
2019-03-31T13:43:28.434Z,10.00
2019-03-31T13:46:00.127Z,9.90
2019-03-31T13:48:29.612Z,10.00
2019-03-31T13:50:59.292Z,9.90
2019-03-31T13:53:29.037Z,9.90
2019-03-31T13:55:58.718Z,10.00
2019-03-31T13:58:28.997Z,10.10
2019-03-31T14:00:58.814Z,10.10
2019-03-31T14:03:28.542Z,10.30
2019-03-31T14:05:58.297Z,10.30
2019-03-31T14:08:29.202Z,10.30
2019-03-31T14:10:58.959Z,10.30
2019-03-31T14:13:28.722Z,10.40
2019-03-31T14:15:58.517Z,10.40
2019-03-31T14:18:28.291Z,10.50
2019-03-31T14:20:57.990Z,10.50
2019-03-31T14:23:29.341Z,10.50
2019-03-31T14:25:59.101Z,10.70
2019-03-31T14:28:28.933Z,10.60
2019-03-31T14:30:58.768Z,10.40
2019-03-31T14:33:29.662Z,10.50
2019-03-31T14:35:59.439Z,10.40
2019-03-31T14:38:39.409Z,10.40
2019-03-31T14:41:01.169Z,10.40
2019-03-31T14:43:30.919Z,10.40
2019-03-31T14:46:00.619Z,10.50
2019-03-31T14:48:30.381Z,10.30
2019-03-31T14:51:00.099Z,10.20
2019-03-31T14:53:29.938Z,10.20
2019-03-31T14:55:59.602Z,10.10
2019-03-31T14:58:29.368Z,10.30
2019-03-31T15:00:59.106Z,10.40
2019-03-31T15:03:29.063Z,10.60
2019-03-31T15:05:58.764Z,10.60
2019-03-31T15:08:28.512Z,10.50
2019-03-31T15:10:58.260Z,10.20
2019-03-31T15:13:27.964Z,10.40
2019-03-31T15:15:59.227Z,10.40
2019-03-31T15:18:29.940Z,10.60
2019-03-31T15:20:59.624Z,10.60
2019-03-31T15:23:30.550Z,10.30
2019-03-31T15:26:00.244Z,10.20
2019-03-31T15:28:29.903Z,10.20
2019-03-31T15:30:59.644Z,9.90
2019-03-31T15:33:29.302Z,9.80
2019-03-31T15:35:58.985Z,9.70
2019-03-31T15:38:28.642Z,9.60
2019-03-31T15:40:58.472Z,9.70
2019-03-31T15:43:28.138Z,9.50
2019-03-31T15:45:57.795Z,9.50
2019-03-31T15:48:27.534Z,9.50
2019-03-31T15:50:57.190Z,9.40
2019-03-31T15:53:27.326Z,9.50
2019-03-31T15:55:57.020Z,9.50
2019-03-31T15:58:26.870Z,9.70
2019-03-31T16:00:57.182Z,9.70
2019-03-31T16:03:26.880Z,9.60
2019-03-31T16:05:56.644Z,9.40
2019-03-31T16:08:26.309Z,9.40
2019-03-31T16:10:56.032Z,9.30
2019-03-31T16:13:25.755Z,9.20
2019-03-31T16:15:55.493Z,9.10
2019-03-31T16:18:25.325Z,9.10
2019-03-31T16:20:55.107Z,8.90
2019-03-31T16:23:25.096Z,8.60
2019-03-31T16:25:56.444Z,8.50
2019-03-31T16:28:26.174Z,8.40
2019-03-31T16:30:55.928Z,8.20
2019-03-31T16:33:25.609Z,8.10
2019-03-31T16:35:56.336Z,7.90
2019-03-31T16:38:26.138Z,7.90
2019-03-31T16:40:56.884Z,7.70
2019-03-31T16:43:28.189Z,7.70
2019-03-31T16:45:58.016Z,7.60
2019-03-31T16:48:29.625Z,7.50
2019-03-31T16:50:59.284Z,7.50
2019-03-31T16:53:28.953Z,7.50
2019-03-31T16:55:58.622Z,7.40
2019-03-31T16:58:28.440Z,7.30
2019-03-31T17:00:58.171Z,7.30
2019-03-31T17:03:27.890Z,7.20
2019-03-31T17:05:57.600Z,7.20
2019-03-31T17:08:27.435Z,7.10
2019-03-31T17:10:57.123Z,7.00
2019-03-31T17:13:26.829Z,7.00
2019-03-31T17:15:56.557Z,6.90
2019-03-31T17:18:26.214Z,6.80
2019-03-31T17:20:55.930Z,6.70
2019-03-31T17:23:25.542Z,6.70
2019-03-31T17:25:55.180Z,6.60
2019-03-31T17:28:25.959Z,6.50
2019-03-31T17:30:56.045Z,6.40
2019-03-31T17:33:25.763Z,6.40
2019-03-31T17:35:55.359Z,6.30
2019-03-31T17:38:25.117Z,6.30
2019-03-31T17:40:54.864Z,6.20
2019-03-31T17:43:25.601Z,6.20
2019-03-31T17:45:55.349Z,6.20
2019-03-31T17:48:25.166Z,6.10
2019-03-31T17:50:56.194Z,6.10
2019-03-31T17:53:25.888Z,6.10
2019-03-31T17:55:55.562Z,6.00
2019-03-31T17:58:25.358Z,6.00
2019-03-31T18:00:55.105Z,6.00
2019-03-31T18:03:24.824Z,5.90
2019-03-31T18:05:54.571Z,5.90
2019-03-31T18:08:25.283Z,5.80
2019-03-31T18:10:54.998Z,5.80
2019-03-31T18:13:24.774Z,5.70
2019-03-31T18:15:54.505Z,5.60
2019-03-31T18:18:24.247Z,5.60
2019-03-31T18:20:53.968Z,5.50
2019-03-31T18:23:23.552Z,5.40
2019-03-31T18:25:53.276Z,5.40
2019-03-31T18:28:24.003Z,5.30
2019-03-31T18:30:53.741Z,5.20
2019-03-31T18:33:23.518Z,5.20
2019-03-31T18:35:54.771Z,5.10
2019-03-31T18:38:24.619Z,5.10
2019-03-31T18:40:55.350Z,5.10
2019-03-31T18:43:25.083Z,5.00
2019-03-31T18:45:54.876Z,5.00
2019-03-31T18:48:24.620Z,4.90
2019-03-31T18:50:55.311Z,4.80
2019-03-31T18:53:44.934Z,4.70
2019-03-31T18:56:32.753Z,4.70
2019-03-31T18:59:20.271Z,4.60
2019-03-31T19:02:09.562Z,4.50
2019-03-31T19:04:57.260Z,4.50
2019-03-31T19:07:40.613Z,4.40
2019-03-31T19:10:25.108Z,4.30
2019-03-31T19:13:02.381Z,4.20
2019-03-31T19:15:33.692Z,4.10
2019-03-31T19:18:16.971Z,4.00
2019-03-31T19:20:51.184Z,4.00
2019-03-31T19:23:22.509Z,4.00
2019-03-31T19:26:12.214Z,3.90
2019-03-31T19:28:43.434Z,3.90
2019-03-31T19:31:14.749Z,3.80
2019-03-31T19:34:02.037Z,3.70
2019-03-31T19:36:51.427Z,3.70
2019-03-31T19:39:22.768Z,3.60
2019-03-31T19:41:54.077Z,3.60
2019-03-31T19:44:41.825Z,3.50
2019-03-31T19:47:13.234Z,3.50
2019-03-31T19:49:47.341Z,3.50
2019-03-31T19:52:18.649Z,3.40
2019-03-31T19:55:06.400Z,3.40
2019-03-31T19:57:41.831Z,3.40
2019-03-31T20:00:20.648Z,3.30
2019-03-31T20:03:07.024Z,3.30
2019-03-31T20:05:41.073Z,3.30
2019-03-31T20:08:15.690Z,3.20
2019-03-31T20:10:53.110Z,3.20
2019-03-31T20:13:24.440Z,3.20
2019-03-31T20:16:02.485Z,3.10
2019-03-31T20:18:41.369Z,3.10
2019-03-31T20:21:15.544Z,3.10
2019-03-31T20:23:47.461Z,3.00
2019-03-31T20:26:27.631Z,3.00
2019-03-31T20:29:01.930Z,2.90
2019-03-31T20:31:42.155Z,2.90
2019-03-31T20:34:13.453Z,2.90
2019-03-31T20:36:53.634Z,2.80
2019-03-31T20:39:37.050Z,2.80
2019-03-31T20:42:14.327Z,2.70
2019-03-31T20:44:45.065Z,2.70
2019-03-31T20:47:14.656Z,2.60
2019-03-31T20:49:44.380Z,2.50
2019-03-31T20:52:14.139Z,2.40
2019-03-31T20:54:43.885Z,2.40
2019-03-31T20:57:13.571Z,2.30
2019-03-31T20:59:43.370Z,2.30
2019-03-31T21:02:13.298Z,2.20
2019-03-31T21:04:43.031Z,2.20
2019-03-31T21:07:12.747Z,2.20
2019-03-31T21:09:45.207Z,2.10
2019-03-31T21:12:13.844Z,2.10
2019-03-31T21:14:43.584Z,2.00
2019-03-31T21:17:13.339Z,2.00
2019-03-31T21:19:43.000Z,1.90
2019-03-31T21:22:12.656Z,1.90
2019-03-31T21:24:42.376Z,1.80
2019-03-31T21:27:12.053Z,1.70
2019-03-31T21:29:41.847Z,1.60
2019-03-31T21:32:11.597Z,1.60
2019-03-31T21:34:41.388Z,1.50
2019-03-31T21:37:11.127Z,1.50
2019-03-31T21:39:40.841Z,1.50
2019-03-31T21:42:10.515Z,1.40
2019-03-31T21:44:42.262Z,1.30
2019-03-31T21:47:12.052Z,1.30
2019-03-31T21:49:42.240Z,1.30
2019-03-31T21:52:11.921Z,1.20
2019-03-31T21:54:41.585Z,1.10
2019-03-31T21:57:11.314Z,1.10
2019-03-31T21:59:41.098Z,1.10
2019-03-31T22:02:10.846Z,1.00
2019-03-31T22:04:40.587Z,1.00
2019-03-31T22:07:10.547Z,1.00
2019-03-31T22:09:40.312Z,0.90
2019-03-31T22:12:10.012Z,0.90
2019-03-31T22:14:39.757Z,0.90
2019-03-31T22:17:09.492Z,0.80
2019-03-31T22:19:39.253Z,0.70
2019-03-31T22:22:08.938Z,0.80
2019-03-31T22:24:38.802Z,0.70
2019-03-31T22:27:08.517Z,0.70
2019-03-31T22:29:38.272Z,0.70
2019-03-31T22:32:09.475Z,0.70
2019-03-31T22:34:39.204Z,0.70
2019-03-31T22:37:08.907Z,0.70
2019-03-31T22:39:40.203Z,0.70
2019-03-31T22:42:09.915Z,0.70
2019-03-31T22:44:39.656Z,0.70
2019-03-31T22:47:09.409Z,0.70
2019-03-31T22:49:41.929Z,0.70
2019-03-31T22:52:12.293Z,0.70
2019-03-31T22:54:42.998Z,0.70
2019-03-31T22:57:12.756Z,0.70
2019-03-31T22:59:42.470Z,0.70
2019-03-31T23:02:12.199Z,0.70
2019-03-31T23:04:41.938Z,0.70
2019-03-31T23:07:11.654Z,0.70
2019-03-31T23:09:41.433Z,0.70
2019-03-31T23:12:11.171Z,0.70
2019-03-31T23:14:40.868Z,0.70
2019-03-31T23:17:10.599Z,0.70
2019-03-31T23:19:40.287Z,0.70
2019-03-31T23:22:09.920Z,0.60
2019-03-31T23:24:39.682Z,0.70
2019-03-31T23:27:09.348Z,0.60
2019-03-31T23:29:39.103Z,0.70
2019-03-31T23:32:08.878Z,0.60
2019-03-31T23:34:38.532Z,0.60
2019-03-31T23:37:08.217Z,0.60
2019-03-31T23:39:37.995Z,0.60
2019-03-31T23:42:07.662Z,0.60
2019-03-31T23:44:37.446Z,0.60
2019-03-31T23:47:07.183Z,0.60
2019-03-31T23:49:36.895Z,0.60
2019-03-31T23:52:06.680Z,0.60
2019-03-31T23:54:36.464Z,0.60
2019-03-31T23:57:06.286Z,0.60
2019-03-31T23:59:35.986Z,0.60
